createdAt,value
2018-06-05T00:00:45.049Z,43.17
2018-06-05T00:03:13.949Z,43.70
2018-06-05T00:05:42.578Z,41.87
2018-06-05T00:08:11.212Z,43.57
2018-06-05T00:10:39.859Z,42.40
2018-06-05T00:13:08.506Z,44.73
2018-06-05T00:15:37.175Z,40.50
2018-06-05T00:18:05.912Z,40.37
2018-06-05T00:20:34.587Z,36.03
2018-06-05T00:23:03.232Z,38.07
2018-06-05T00:25:31.816Z,39.40
2018-06-05T00:28:00.513Z,37.50
2018-06-05T00:30:29.187Z,39.97
2018-06-05T00:32:57.871Z,39.30
2018-06-05T00:35:26.509Z,38.77
2018-06-05T00:37:55.154Z,38.70
2018-06-05T00:40:23.902Z,38.73
2018-06-05T00:42:52.587Z,38.60
2018-06-05T00:45:21.218Z,36.77
2018-06-05T00:47:50.019Z,36.70
2018-06-05T00:50:18.648Z,34.50
2018-06-05T00:52:47.336Z,37.77
2018-06-05T00:55:16.155Z,36.13
2018-06-05T00:57:44.798Z,36.53
2018-06-05T01:00:13.455Z,36.23
2018-06-05T01:02:42.180Z,37.87
2018-06-05T01:05:10.947Z,42.27
2018-06-05T01:07:39.690Z,39.87
2018-06-05T01:10:08.399Z,41.20
2018-06-05T01:12:37.054Z,43.40
2018-06-05T01:15:06.055Z,41.20
2018-06-05T01:17:34.737Z,40.93
2018-06-05T01:20:03.457Z,45.23
2018-06-05T01:22:32.122Z,45.83
2018-06-05T01:25:00.760Z,43.37
2018-06-05T01:27:29.411Z,42.53
2018-06-05T01:29:58.121Z,41.90
2018-06-05T01:32:26.778Z,43.77
2018-06-05T01:34:55.495Z,41.40
2018-06-05T01:37:24.098Z,40.70
2018-06-05T01:39:52.751Z,40.60
2018-06-05T01:42:21.433Z,41.13
2018-06-05T01:44:50.087Z,37.87
2018-06-05T01:47:19.239Z,40.57
2018-06-05T01:49:47.890Z,40.97
2018-06-05T01:52:16.579Z,42.47
2018-06-05T01:54:45.360Z,39.73
2018-06-05T01:57:14.077Z,43.00
2018-06-05T01:59:42.762Z,41.10
2018-06-05T02:02:11.521Z,41.80
2018-06-05T02:04:40.214Z,37.90
2018-06-05T02:07:08.843Z,45.73
2018-06-05T02:09:37.501Z,42.00
2018-06-05T02:12:06.175Z,41.80
2018-06-05T02:14:34.823Z,43.63
2018-06-05T02:17:03.564Z,40.83
2018-06-05T02:19:32.224Z,42.30
2018-06-05T02:22:00.967Z,43.20
2018-06-05T02:24:29.722Z,39.20
2018-06-05T02:26:58.575Z,42.57
2018-06-05T02:29:27.195Z,41.47
2018-06-05T02:31:55.953Z,39.70
2018-06-05T02:34:24.701Z,40.43
2018-06-05T02:36:53.413Z,37.07
2018-06-05T02:39:22.062Z,37.73
2018-06-05T02:41:50.704Z,35.30
2018-06-05T02:44:19.415Z,35.57
2018-06-05T02:46:48.033Z,35.77
2018-06-05T02:49:16.415Z,32.60
2018-06-05T02:51:45.141Z,35.47
2018-06-05T02:54:13.830Z,35.23
2018-06-05T02:56:42.543Z,34.17
2018-06-05T02:59:11.174Z,35.73
2018-06-05T03:01:39.888Z,34.47
2018-06-05T03:04:08.594Z,36.73
2018-06-05T03:06:37.249Z,35.90
2018-06-05T03:09:07.607Z,35.20
2018-06-05T03:11:36.347Z,38.10
2018-06-05T03:14:05.195Z,36.40
2018-06-05T03:16:33.962Z,35.27
2018-06-05T03:19:02.849Z,36.10
2018-06-05T03:21:31.545Z,38.40
2018-06-05T03:24:00.267Z,41.77
2018-06-05T03:26:29.092Z,37.67
2018-06-05T03:28:57.873Z,40.47
2018-06-05T03:31:26.639Z,44.47
2018-06-05T03:33:55.376Z,45.37
2018-06-05T03:36:24.059Z,42.17
2018-06-05T03:38:52.785Z,43.00
2018-06-05T03:41:21.511Z,41.43
2018-06-05T03:43:50.738Z,37.43
2018-06-05T03:46:19.358Z,34.70
2018-06-05T03:48:48.064Z,32.40
2018-06-05T03:51:16.731Z,25.73
2018-06-05T03:53:45.488Z,27.87
2018-06-05T03:56:14.142Z,26.53
2018-06-05T03:58:42.834Z,28.27
2018-06-05T04:01:11.557Z,27.40
2018-06-05T04:03:40.010Z,26.47
2018-06-05T04:06:08.790Z,25.60
2018-06-05T04:08:37.485Z,28.17
2018-06-05T04:11:06.788Z,26.70
2018-06-05T04:13:35.455Z,29.53
2018-06-05T04:16:05.206Z,26.53
2018-06-05T04:18:34.008Z,27.30
2018-06-05T04:21:02.662Z,27.47
2018-06-05T04:23:31.450Z,28.60
2018-06-05T04:26:00.093Z,27.70
2018-06-05T04:28:28.733Z,26.10
2018-06-05T04:30:57.303Z,29.00
2018-06-05T04:33:25.969Z,26.77
2018-06-05T04:35:54.628Z,26.27
2018-06-05T04:38:23.237Z,27.60
2018-06-05T04:40:52.103Z,26.10
2018-06-05T04:43:20.876Z,26.90
2018-06-05T04:45:49.625Z,28.47
2018-06-05T04:48:18.307Z,25.37
2018-06-05T04:50:46.995Z,29.93
2018-06-05T04:53:15.771Z,26.27
2018-06-05T04:55:44.418Z,29.57
2018-06-05T04:58:13.055Z,26.77
2018-06-05T05:00:41.637Z,28.53
2018-06-05T05:03:10.294Z,27.13
2018-06-05T05:05:39.041Z,26.07
2018-06-05T05:08:07.669Z,25.63
2018-06-05T05:10:36.383Z,27.07
2018-06-05T05:13:05.652Z,25.02
2018-06-05T05:15:34.379Z,26.25
2018-06-05T05:18:03.548Z,27.48
2018-06-05T05:20:32.227Z,26.70
2018-06-05T05:23:00.905Z,27.43
2018-06-05T05:25:29.634Z,28.20
2018-06-05T05:27:58.353Z,32.23
2018-06-05T05:30:27.160Z,30.37
2018-06-05T05:32:55.774Z,30.70
2018-06-05T05:35:24.438Z,32.73
2018-06-05T05:37:53.147Z,33.33
2018-06-05T05:40:21.996Z,34.63
2018-06-05T05:42:50.783Z,31.97
2018-06-05T05:45:19.549Z,33.40
2018-06-05T05:47:48.220Z,33.00
2018-06-05T05:50:16.906Z,33.20
2018-06-05T05:52:45.640Z,34.50
2018-06-05T05:55:14.434Z,33.23
2018-06-05T05:57:43.729Z,31.87
2018-06-05T06:00:12.529Z,31.70
2018-06-05T06:02:41.211Z,31.30
2018-06-05T06:05:09.889Z,29.93
2018-06-05T06:07:38.527Z,31.53
2018-06-05T06:10:07.264Z,33.30
2018-06-05T06:12:35.976Z,29.10
2018-06-05T06:15:04.643Z,28.43
2018-06-05T06:17:33.244Z,29.93
2018-06-05T06:20:02.016Z,30.27
2018-06-05T06:22:30.693Z,28.70
2018-06-05T06:24:59.493Z,32.20
2018-06-05T06:27:28.125Z,32.37
2018-06-05T06:29:56.783Z,35.53
2018-06-05T06:32:25.493Z,36.10
2018-06-05T06:34:54.248Z,34.40
2018-06-05T06:37:22.868Z,33.60
2018-06-05T06:39:51.584Z,31.30
2018-06-05T06:42:20.177Z,33.13
2018-06-05T06:44:48.795Z,33.83
2018-06-05T06:47:17.525Z,32.93
2018-06-05T06:49:46.279Z,33.40
2018-06-05T06:52:14.890Z,33.57
2018-06-05T06:54:43.654Z,31.93
2018-06-05T06:57:13.250Z,33.43
2018-06-05T06:59:42.081Z,33.30
2018-06-05T07:02:10.705Z,32.20
2018-06-05T07:04:39.521Z,33.40
2018-06-05T07:07:08.151Z,30.33
2018-06-05T07:09:36.793Z,33.57
2018-06-05T07:12:05.462Z,29.60
2018-06-05T07:14:34.152Z,30.43
2018-06-05T07:17:03.427Z,32.17
2018-06-05T07:19:32.295Z,30.50
2018-06-05T07:22:00.939Z,30.27
2018-06-05T07:24:29.580Z,31.40
2018-06-05T07:26:58.294Z,29.30
2018-06-05T07:29:26.987Z,29.10
2018-06-05T07:31:55.635Z,29.13
2018-06-05T07:34:24.268Z,30.73
2018-06-05T07:36:54.109Z,31.53
2018-06-05T07:39:22.896Z,34.43
2018-06-05T07:41:51.961Z,30.73
2018-06-05T07:44:20.835Z,34.03
2018-06-05T07:46:49.522Z,33.90
2018-06-05T07:49:18.257Z,33.10
2018-06-05T07:51:46.894Z,33.57
2018-06-05T07:54:15.639Z,28.77
2018-06-05T07:56:44.442Z,32.30
2018-06-05T07:59:13.168Z,34.30
2018-06-05T08:01:41.884Z,29.50
2018-06-05T08:04:10.789Z,29.23
2018-06-05T08:06:39.551Z,26.10
2018-06-05T08:09:09.606Z,24.97
2018-06-05T08:11:38.359Z,24.77
2018-06-05T08:14:08.089Z,21.93
2018-06-05T08:16:36.773Z,22.17
2018-06-05T08:19:05.565Z,24.33
2018-06-05T08:21:34.374Z,26.70
2018-06-05T08:24:03.048Z,22.27
2018-06-05T08:26:44.634Z,21.80
2018-06-05T08:29:13.414Z,20.20
2018-06-05T08:31:42.145Z,24.20
2018-06-05T08:34:10.995Z,21.57
2018-06-05T08:36:39.643Z,20.67
2018-06-05T08:39:08.798Z,20.17
2018-06-05T08:41:37.584Z,22.20
2018-06-05T08:44:06.315Z,21.80
2018-06-05T08:46:35.207Z,23.13
2018-06-05T08:49:03.904Z,19.20
2018-06-05T08:51:32.607Z,21.57
2018-06-05T08:54:01.296Z,20.07
2018-06-05T08:56:30.055Z,21.07
2018-06-05T08:58:58.859Z,22.03
2018-06-05T09:01:27.621Z,23.57
2018-06-05T09:03:56.490Z,21.20
2018-06-05T09:06:25.343Z,20.97
2018-06-05T09:08:54.135Z,18.83
2018-06-05T09:11:24.512Z,20.07
2018-06-05T09:13:53.265Z,21.60
2018-06-05T09:16:21.989Z,20.37
2018-06-05T09:18:50.783Z,21.50
2018-06-05T09:21:19.556Z,20.40
2018-06-05T09:23:48.259Z,19.53
2018-06-05T09:26:17.891Z,21.00
2018-06-05T09:28:46.534Z,20.10
2018-06-05T09:31:15.190Z,20.10
2018-06-05T09:33:43.951Z,21.73
2018-06-05T09:36:12.556Z,22.83
2018-06-05T09:38:41.315Z,23.50
2018-06-05T09:41:10.154Z,19.80
2018-06-05T09:43:38.911Z,20.20
2018-06-05T09:46:07.624Z,21.50
2018-06-05T09:48:35.950Z,20.90
2018-06-05T09:51:04.672Z,20.60
2018-06-05T09:53:33.583Z,19.17
2018-06-05T09:56:02.505Z,20.00
2018-06-05T09:58:31.343Z,17.47
2018-06-05T10:01:00.026Z,19.47
2018-06-05T10:03:28.619Z,20.40
2018-06-05T10:05:57.297Z,19.53
2018-06-05T10:08:26.065Z,20.30
2018-06-05T10:10:54.851Z,20.17
2018-06-05T10:13:23.738Z,18.20
2018-06-05T10:15:52.457Z,19.67
2018-06-05T10:18:21.710Z,19.60
2018-06-05T10:20:50.488Z,20.60
2018-06-05T10:23:19.243Z,17.90
2018-06-05T10:25:48.049Z,19.87
2018-06-05T10:28:16.782Z,18.23
2018-06-05T10:30:45.756Z,17.80
2018-06-05T10:33:14.490Z,18.97
2018-06-05T10:35:43.306Z,20.07
2018-06-05T10:38:12.024Z,19.07
2018-06-05T10:40:40.748Z,19.53
2018-06-05T10:43:09.555Z,19.00
2018-06-05T10:45:38.039Z,17.90
2018-06-05T10:48:06.921Z,20.53
2018-06-05T10:50:40.476Z,19.23
2018-06-05T10:53:09.248Z,19.57
2018-06-05T10:55:38.061Z,20.87
2018-06-05T10:58:06.772Z,20.80
2018-06-05T11:00:35.429Z,20.20
2018-06-05T11:03:04.137Z,18.83
2018-06-05T11:05:32.925Z,20.80
2018-06-05T11:08:01.760Z,23.50
2018-06-05T11:10:30.523Z,19.73
2018-06-05T11:12:59.277Z,20.63
2018-06-05T11:15:28.209Z,24.50
2018-06-05T11:17:56.855Z,21.83
2018-06-05T11:20:25.504Z,23.37
2018-06-05T11:22:54.213Z,24.00
2018-06-05T11:25:22.951Z,22.73
2018-06-05T11:27:51.719Z,21.13
2018-06-05T11:30:20.461Z,21.50
2018-06-05T11:32:49.294Z,22.90
2018-06-05T11:35:17.921Z,20.20
2018-06-05T11:37:46.575Z,21.77
2018-06-05T11:40:15.182Z,20.73
2018-06-05T11:42:43.856Z,22.47
2018-06-05T11:45:12.833Z,20.93
2018-06-05T11:47:41.509Z,20.57
2018-06-05T11:50:10.214Z,19.50
2018-06-05T11:52:38.871Z,21.00
2018-06-05T11:55:07.524Z,20.60
2018-06-05T11:57:36.209Z,19.00
2018-06-05T12:00:05.213Z,20.10
2018-06-05T12:02:33.858Z,22.03
2018-06-05T12:05:02.587Z,20.60
2018-06-05T12:07:31.215Z,20.57
2018-06-05T12:09:59.798Z,37.00
2018-06-05T12:12:28.443Z,22.60
2018-06-05T12:14:57.117Z,20.07
2018-06-05T12:17:25.782Z,22.50
2018-06-05T12:19:54.482Z,21.17
2018-06-05T12:22:23.075Z,21.40
2018-06-05T12:24:51.697Z,23.77
2018-06-05T12:27:20.316Z,20.03
2018-06-05T12:29:49.036Z,23.43
2018-06-05T12:32:17.922Z,23.40
2018-06-05T12:34:46.590Z,21.53
2018-06-05T12:37:15.259Z,23.20
2018-06-05T12:39:43.981Z,23.23
2018-06-05T12:42:12.907Z,23.37
2018-06-05T12:44:41.591Z,22.50
2018-06-05T12:47:10.335Z,23.17
2018-06-05T12:49:39.037Z,25.20
2018-06-05T12:52:07.735Z,23.60
2018-06-05T12:54:36.650Z,25.03
2018-06-05T12:57:05.320Z,21.23
2018-06-05T12:59:33.966Z,22.50
2018-06-05T13:02:02.576Z,24.90
2018-06-05T13:04:31.226Z,23.90
2018-06-05T13:07:00.075Z,24.47
2018-06-05T13:09:28.723Z,22.30
2018-06-05T13:11:57.489Z,22.70
2018-06-05T13:14:26.121Z,23.53
2018-06-05T13:16:54.920Z,20.90
2018-06-05T13:19:24.201Z,22.87
2018-06-05T13:21:52.949Z,23.50
2018-06-05T13:24:21.274Z,23.70
2018-06-05T13:26:49.955Z,23.90
2018-06-05T13:29:18.698Z,22.83
2018-06-05T13:31:47.339Z,20.73
2018-06-05T13:34:15.953Z,22.60
2018-06-05T13:36:45.018Z,23.47
2018-06-05T13:39:13.682Z,21.87
2018-06-05T13:41:42.410Z,23.00
2018-06-05T13:44:11.376Z,24.10
2018-06-05T13:46:39.985Z,22.67
2018-06-05T13:49:08.661Z,23.83
2018-06-05T13:51:37.465Z,23.90
2018-06-05T13:54:06.357Z,23.27
2018-06-05T13:56:35.317Z,28.57
2018-06-05T13:59:04.408Z,22.90
2018-06-05T14:01:33.197Z,21.50
2018-06-05T14:04:01.905Z,22.13
2018-06-05T14:06:30.987Z,25.37
2018-06-05T14:08:59.659Z,23.53
2018-06-05T14:11:28.353Z,23.10
2018-06-05T14:13:57.005Z,24.57
2018-06-05T14:16:25.688Z,25.03
2018-06-05T14:18:54.373Z,24.27
2018-06-05T14:21:23.111Z,23.00
2018-06-05T14:23:51.810Z,22.73
2018-06-05T14:26:20.455Z,22.87
2018-06-05T14:28:49.094Z,24.00
2018-06-05T14:31:17.813Z,23.40
2018-06-05T14:33:46.475Z,22.77
2018-06-05T14:36:14.765Z,23.93
2018-06-05T14:38:43.454Z,26.30
2018-06-05T14:41:12.097Z,23.37
2018-06-05T14:43:40.738Z,24.30
2018-06-05T14:46:09.421Z,24.07
2018-06-05T14:48:38.312Z,24.30
2018-06-05T14:51:06.954Z,22.20
2018-06-05T14:53:35.853Z,26.20
2018-06-05T14:56:04.577Z,22.80
2018-06-05T14:58:33.504Z,25.70
2018-06-05T15:01:02.126Z,25.10
2018-06-05T15:03:30.856Z,25.17
2018-06-05T15:05:59.554Z,25.10
2018-06-05T15:08:28.226Z,25.13
2018-06-05T15:10:56.922Z,25.00
2018-06-05T15:13:25.744Z,23.73
2018-06-05T15:15:54.386Z,27.30
2018-06-05T15:18:23.051Z,23.93
2018-06-05T15:20:51.686Z,26.17
2018-06-05T15:23:20.289Z,25.93
2018-06-05T15:25:48.905Z,26.43
2018-06-05T15:28:17.615Z,25.77
2018-06-05T15:30:46.334Z,26.07
2018-06-05T15:33:15.117Z,25.93
2018-06-05T15:35:43.805Z,26.07
2018-06-05T15:38:12.169Z,27.10
2018-06-05T15:40:41.047Z,27.80
2018-06-05T15:43:09.705Z,26.80
2018-06-05T15:45:38.077Z,23.30
2018-06-05T15:48:06.838Z,24.37
2018-06-05T15:50:35.482Z,22.83
2018-06-05T15:53:04.193Z,25.07
2018-06-05T15:55:32.895Z,25.60
2018-06-05T15:58:01.617Z,24.83
2018-06-05T16:00:29.922Z,25.40
2018-06-05T16:02:58.549Z,25.03
2018-06-05T16:05:27.299Z,26.17
2018-06-05T16:07:56.012Z,25.40
2018-06-05T16:10:24.747Z,25.40
2018-06-05T16:12:53.555Z,28.53
2018-06-05T16:15:22.338Z,23.50
2018-06-05T16:17:51.129Z,24.60
2018-06-05T16:20:19.846Z,24.80
2018-06-05T16:22:48.593Z,25.50
2018-06-05T16:25:17.311Z,25.20
2018-06-05T16:27:45.926Z,22.73
2018-06-05T16:30:14.606Z,25.13
2018-06-05T16:32:43.342Z,25.20
2018-06-05T16:35:11.955Z,24.13
2018-06-05T16:37:40.675Z,26.53
2018-06-05T16:40:09.355Z,25.30
2018-06-05T16:42:37.997Z,23.43
2018-06-05T16:45:06.733Z,24.70
2018-06-05T16:47:35.392Z,24.20
2018-06-05T16:50:04.364Z,24.10
2018-06-05T16:52:33.106Z,24.37
2018-06-05T16:55:01.862Z,26.20
2018-06-05T16:57:30.471Z,22.93
2018-06-05T16:59:59.251Z,21.50
2018-06-05T17:02:28.745Z,22.27
2018-06-05T17:04:57.416Z,23.43
2018-06-05T17:07:26.094Z,22.37
2018-06-05T17:09:55.432Z,22.40
2018-06-05T17:12:24.067Z,21.07
2018-06-05T17:14:52.792Z,21.03
2018-06-05T17:17:21.448Z,22.00
2018-06-05T17:19:50.116Z,20.97
2018-06-05T17:22:18.470Z,21.97
2018-06-05T17:24:47.274Z,20.10
2018-06-05T17:27:16.700Z,21.10
2018-06-05T17:29:46.576Z,18.40
2018-06-05T17:32:15.236Z,17.93
2018-06-05T17:34:43.928Z,19.50
2018-06-05T17:37:12.547Z,19.30
2018-06-05T17:39:40.857Z,17.63
2018-06-05T17:42:09.497Z,19.73
2018-06-05T17:44:38.448Z,21.70
2018-06-05T17:47:07.144Z,18.67
2018-06-05T17:49:36.794Z,19.27
2018-06-05T17:52:05.677Z,18.50
2018-06-05T17:54:34.855Z,18.30
2018-06-05T17:57:03.608Z,18.77
2018-06-05T17:59:32.375Z,18.13
2018-06-05T18:02:01.077Z,16.83
2018-06-05T18:04:29.732Z,17.13
2018-06-05T18:06:58.444Z,18.80
2018-06-05T18:09:27.147Z,23.67
2018-06-05T18:11:55.779Z,17.77
2018-06-05T18:14:24.473Z,18.77
2018-06-05T18:16:53.123Z,17.60
2018-06-05T18:19:22.443Z,18.60
2018-06-05T18:21:51.566Z,18.17
2018-06-05T18:24:19.820Z,19.10
2018-06-05T18:26:49.379Z,19.37
2018-06-05T18:29:18.424Z,18.20
2018-06-05T18:31:47.105Z,17.10
2018-06-05T18:34:15.806Z,18.93
2018-06-05T18:36:44.447Z,17.30
2018-06-05T18:39:13.182Z,17.90
2018-06-05T18:41:42.513Z,17.03
2018-06-05T18:44:11.325Z,15.80
2018-06-05T18:46:40.324Z,17.77
2018-06-05T18:49:09.029Z,17.50
2018-06-05T18:51:37.676Z,18.30
2018-06-05T18:54:06.364Z,18.13
2018-06-05T18:56:35.064Z,17.90
2018-06-05T18:59:03.861Z,21.47
2018-06-05T19:01:32.646Z,18.13
2018-06-05T19:04:01.456Z,18.20
2018-06-05T19:06:31.869Z,20.10
2018-06-05T19:09:00.519Z,18.33
2018-06-05T19:11:29.272Z,18.23
2018-06-05T19:13:59.754Z,18.23
2018-06-05T19:16:29.267Z,18.60
2018-06-05T19:18:58.036Z,18.47
2018-06-05T19:21:26.730Z,19.47
2018-06-05T19:23:56.073Z,18.27
2018-06-05T19:26:25.371Z,18.40
2018-06-05T19:28:54.004Z,17.10
2018-06-05T19:31:22.859Z,19.70
2018-06-05T19:33:51.717Z,19.00
2018-06-05T19:36:20.337Z,20.10
2018-06-05T19:38:49.300Z,19.80
2018-06-05T19:41:18.162Z,18.37
2018-06-05T19:43:46.828Z,18.90
2018-06-05T19:46:15.724Z,18.63
2018-06-05T19:48:44.517Z,19.37
2018-06-05T19:51:13.328Z,18.10
2018-06-05T19:53:42.203Z,19.33
2018-06-05T19:56:10.861Z,20.20
2018-06-05T19:58:39.563Z,19.30
2018-06-05T20:01:08.168Z,18.33
2018-06-05T20:03:36.952Z,20.70
2018-06-05T20:06:06.303Z,17.70
2018-06-05T20:08:35.238Z,20.57
2018-06-05T20:11:04.376Z,20.43
2018-06-05T20:13:33.032Z,20.50
2018-06-05T20:16:01.821Z,20.50
2018-06-05T20:18:31.130Z,21.97
2018-06-05T20:20:59.886Z,20.37
2018-06-05T20:23:28.526Z,21.40
2018-06-05T20:25:57.165Z,21.40
2018-06-05T20:28:25.845Z,20.20
2018-06-05T20:30:54.633Z,20.57
2018-06-05T20:33:23.956Z,21.80
2018-06-05T20:35:52.693Z,20.83
2018-06-05T20:38:21.388Z,20.77
2018-06-05T20:40:50.074Z,20.33
2018-06-05T20:43:18.851Z,21.70
2018-06-05T20:45:47.742Z,20.63
2018-06-05T20:48:16.410Z,20.70
2018-06-05T20:50:45.026Z,22.00
2018-06-05T20:53:13.590Z,21.67
2018-06-05T20:55:42.190Z,23.07
2018-06-05T20:58:10.798Z,22.17
2018-06-05T21:00:39.411Z,22.23
2018-06-05T21:03:09.021Z,23.83
2018-06-05T21:05:37.610Z,23.97
2018-06-05T21:08:06.414Z,23.10
2018-06-05T21:10:35.038Z,23.30
2018-06-05T21:13:03.649Z,23.63
2018-06-05T21:15:32.257Z,22.80
2018-06-05T21:18:01.042Z,24.30
2018-06-05T21:20:29.659Z,22.30
2018-06-05T21:22:58.367Z,22.70
2018-06-05T21:25:27.198Z,22.63
2018-06-05T21:27:55.874Z,22.53
2018-06-05T21:30:24.636Z,26.30
2018-06-05T21:32:53.198Z,24.40
2018-06-05T21:35:21.835Z,25.00
2018-06-05T21:37:50.475Z,23.33
2018-06-05T21:40:19.065Z,25.33
2018-06-05T21:42:47.702Z,25.33
2018-06-05T21:45:16.328Z,24.70
2018-06-05T21:47:45.020Z,26.17
2018-06-05T21:50:13.652Z,25.20
2018-06-05T21:52:42.260Z,25.87
2018-06-05T21:55:11.709Z,23.50
2018-06-05T21:57:40.287Z,24.80
2018-06-05T22:00:10.606Z,23.57
2018-06-05T22:02:40.183Z,24.33
2018-06-05T22:05:10.067Z,25.17
2018-06-05T22:07:38.679Z,26.30
2018-06-05T22:10:07.302Z,24.50
2018-06-05T22:12:35.867Z,26.87
2018-06-05T22:15:04.562Z,23.20
2018-06-05T22:17:33.278Z,22.67
2018-06-05T22:20:01.864Z,24.27
2018-06-05T22:22:30.586Z,23.50
2018-06-05T22:24:59.222Z,24.73
2018-06-05T22:27:27.818Z,23.70
2018-06-05T22:29:56.451Z,25.00
2018-06-05T22:32:25.028Z,25.57
2018-06-05T22:34:53.655Z,26.17
2018-06-05T22:37:22.304Z,24.03
2018-06-05T22:39:51.058Z,25.90
2018-06-05T22:42:19.624Z,24.30
2018-06-05T22:44:48.262Z,27.42
2018-06-05T22:47:16.882Z,24.33
2018-06-05T22:49:45.469Z,23.70
2018-06-05T22:52:14.075Z,23.40
2018-06-05T22:54:42.704Z,24.13
2018-06-05T22:57:11.369Z,25.57
2018-06-05T22:59:40.008Z,24.83
2018-06-05T23:02:08.784Z,24.60
2018-06-05T23:04:37.351Z,24.30
2018-06-05T23:07:05.955Z,23.10
2018-06-05T23:09:34.643Z,24.97
2018-06-05T23:12:03.171Z,25.50
2018-06-05T23:14:31.811Z,26.40
2018-06-05T23:17:00.394Z,23.87
2018-06-05T23:19:28.976Z,24.83
2018-06-05T23:21:57.930Z,26.50
2018-06-05T23:24:26.512Z,24.20
2018-06-05T23:26:55.166Z,24.37
2018-06-05T23:29:23.774Z,23.77
2018-06-05T23:31:52.437Z,24.00
2018-06-05T23:34:21.038Z,24.90
2018-06-05T23:36:49.723Z,25.60
2018-06-05T23:39:18.415Z,26.30
2018-06-05T23:41:46.979Z,24.47
2018-06-05T23:44:15.575Z,26.90
2018-06-05T23:46:44.233Z,25.80
2018-06-05T23:49:12.915Z,22.47
2018-06-05T23:51:41.645Z,24.53
2018-06-05T23:54:10.268Z,25.00
2018-06-05T23:56:38.988Z,24.23
2018-06-05T23:59:07.635Z,24.90
